sensor_id;sensor_type;location;lat;lon;timestamp;temperature;humidity
39371;DHT22;25099;51.946;4.838;2023-03-04T04:05:43;6.30;99.90
39371;DHT22;25099;51.946;4.838;2023-03-04T04:08:13;6.30;99.90
39371;DHT22;25099;51.946;4.838;2023-03-04T04:10:40;6.90;99.90
39371;DHT22;25099;51.946;4.838;2023-03-04T04:13:06;6.80;99.90
39371;DHT22;25099;51.946;4.838;2023-03-04T04:15:35;6.60;99.90
39371;DHT22;25099;51.946;4.838;2023-03-04T04:18:03;6.10;99.90
39371;DHT22;25099;51.946;4.838;2023-03-04T04:20:35;6.60;99.90
39371;DHT22;25099;51.946;4.838;2023-03-04T04:23:04;7.20;99.90
39371;DHT22;25099;51.946;4.838;2023-03-04T04:25:35;6.70;99.90
39371;DHT22;25099;51.946;4.838;2023-03-04T04:28:01;6.80;99.90
39371;DHT22;25099;51.946;4.838;2023-03-04T04:30:27;6.10;99.90
39371;DHT22;25099;51.946;4.838;2023-03-04T04:32:58;6.60;99.90
39371;DHT22;25099;51.946;4.838;2023-03-04T04:35:29;6.60;99.90
39371;DHT22;25099;51.946;4.838;2023-03-04T04:37:58;6.50;99.90
39371;DHT22;25099;51.946;4.838;2023-03-04T04:40:30;6.60;99.90
39371;DHT22;25099;51.946;4.838;2023-03-04T04:42:58;6.10;99.90
39371;DHT22;25099;51.946;4.838;2023-03-04T04:45:29;7.00;99.90
39371;DHT22;25099;51.946;4.838;2023-03-04T04:48:01;6.50;99.90
39371;DHT22;25099;51.946;4.838;2023-03-04T04:50:30;6.30;99.90
39371;DHT22;25099;51.946;4.838;2023-03-04T04:53:01;6.00;99.90
39371;DHT22;25099;51.946;4.838;2023-03-04T04:55:33;6.80;99.90
39371;DHT22;25099;51.946;4.838;2023-03-04T04:57:59;5.60;99.90
39371;DHT22;25099;51.946;4.838;2023-03-04T05:00:25;6.00;99.90
39371;DHT22;25099;51.946;4.838;2023-03-04T05:05:19;6.00;99.90
39371;DHT22;25099;51.946;4.838;2023-03-04T05:07:50;6.20;99.90
39371;DHT22;25099;51.946;4.838;2023-03-04T05:10:22;6.20;99.90
39371;DHT22;25099;51.946;4.838;2023-03-04T05:12:51;7.00;99.90
39371;DHT22;25099;51.946;4.838;2023-03-04T05:15:23;5.80;99.90
39371;DHT22;25099;51.946;4.838;2023-03-04T05:17:54;7.20;99.90
39371;DHT22;25099;51.946;4.838;2023-03-04T05:20:32;6.70;99.90
39371;DHT22;25099;51.946;4.838;2023-03-04T05:25:32;6.00;99.90
39371;DHT22;25099;51.946;4.838;2023-03-04T05:30:32;6.00;99.90
39371;DHT22;25099;51.946;4.838;2023-03-04T05:33:00;5.90;99.90
39371;DHT22;25099;51.946;4.838;2023-03-04T05:35:32;6.00;99.90
39371;DHT22;25099;51.946;4.838;2023-03-04T05:38:05;6.10;99.90
39371;DHT22;25099;51.946;4.838;2023-03-04T05:40:40;5.70;99.90
39371;DHT22;25099;51.946;4.838;2023-03-04T05:43:09;6.70;99.90
39371;DHT22;25099;51.946;4.838;2023-03-04T05:45:41;6.60;99.90
39371;DHT22;25099;51.946;4.838;2023-03-04T05:48:10;6.80;99.90
39371;DHT22;25099;51.946;4.838;2023-03-04T05:50:36;6.50;99.90
39371;DHT22;25099;51.946;4.838;2023-03-04T05:53:02;6.60;99.90
39371;DHT22;25099;51.946;4.838;2023-03-04T05:55:36;6.10;99.90
39371;DHT22;25099;51.946;4.838;2023-03-04T05:58:14;7.10;99.90
39371;DHT22;25099;51.946;4.838;2023-03-04T06:00:43;5.60;99.90
39371;DHT22;25099;51.946;4.838;2023-03-04T06:03:22;6.10;99.90
39371;DHT22;25099;51.946;4.838;2023-03-04T06:05:53;6.80;99.90
39371;DHT22;25099;51.946;4.838;2023-03-04T06:08:19;6.10;99.90
39371;DHT22;25099;51.946;4.838;2023-03-04T06:10:51;6.50;99.90
39371;DHT22;25099;51.946;4.838;2023-03-04T06:13:23;6.50;99.90
39371;DHT22;25099;51.946;4.838;2023-03-04T06:15:55;6.50;99.90
39371;DHT22;25099;51.946;4.838;2023-03-04T06:18:27;6.10;99.90
39371;DHT22;25099;51.946;4.838;2023-03-04T06:21:00;6.60;99.90
39371;DHT22;25099;51.946;4.838;2023-03-04T06:23:30;6.10;99.90
39371;DHT22;25099;51.946;4.838;2023-03-04T06:26:04;7.20;99.90
39371;DHT22;25099;51.946;4.838;2023-03-04T06:28:42;6.80;99.90
39371;DHT22;25099;51.946;4.838;2023-03-04T06:31:08;5.90;99.90
39371;DHT22;25099;51.946;4.838;2023-03-04T06:33:36;6.50;99.90
39371;DHT22;25099;51.946;4.838;2023-03-04T06:36:06;6.00;99.90
39371;DHT22;25099;51.946;4.838;2023-03-04T06:38:40;6.00;99.90
39371;DHT22;25099;51.946;4.838;2023-03-04T06:41:10;6.60;99.90
39371;DHT22;25099;51.946;4.838;2023-03-04T06:43:42;6.60;99.90
39371;DHT22;25099;51.946;4.838;2023-03-04T06:46:10;6.70;99.90
39371;DHT22;25099;51.946;4.838;2023-03-04T06:48:48;6.10;99.90
39371;DHT22;25099;51.946;4.838;2023-03-04T06:51:16;6.50;99.90
39371;DHT22;25099;51.946;4.838;2023-03-04T06:53:45;6.60;99.90
39371;DHT22;25099;51.946;4.838;2023-03-04T06:56:14;6.70;99.90
39371;DHT22;25099;51.946;4.838;2023-03-04T06:58:48;6.60;99.90
39371;DHT22;25099;51.946;4.838;2023-03-04T07:01:18;6.50;99.90
39371;DHT22;25099;51.946;4.838;2023-03-04T07:03:48;6.10;99.90
39371;DHT22;25099;51.946;4.838;2023-03-04T07:06:25;6.40;99.90
39371;DHT22;25099;51.946;4.838;2023-03-04T07:08:51;7.60;99.90
39371;DHT22;25099;51.946;4.838;2023-03-04T07:11:21;7.30;99.90
39371;DHT22;25099;51.946;4.838;2023-03-04T07:13:57;6.60;99.90
39371;DHT22;25099;51.946;4.838;2023-03-04T07:18:57;6.40;99.90
39371;DHT22;25099;51.946;4.838;2023-03-04T07:21:26;6.90;99.90
39371;DHT22;25099;51.946;4.838;2023-03-04T07:23:55;6.40;99.90
39371;DHT22;25099;51.946;4.838;2023-03-04T07:26:25;6.40;99.90
39371;DHT22;25099;51.946;4.838;2023-03-04T07:29:00;6.90;99.90
39371;DHT22;25099;51.946;4.838;2023-03-04T07:31:33;6.70;99.90
39371;DHT22;25099;51.946;4.838;2023-03-04T07:39:28;6.30;99.90
39371;DHT22;25099;51.946;4.838;2023-03-04T07:44:57;6.10;99.90
39371;DHT22;25099;51.946;4.838;2023-03-04T07:47:28;6.80;99.90
39371;DHT22;25099;51.946;4.838;2023-03-04T07:50:14;6.40;99.90
39371;DHT22;25099;51.946;4.838;2023-03-04T07:55:15;6.40;99.90
39371;DHT22;25099;51.946;4.838;2023-03-04T08:00:14;6.30;99.90
39371;DHT22;25099;51.946;4.838;2023-03-04T08:02:43;6.40;99.90
39371;DHT22;25099;51.946;4.838;2023-03-04T08:05:09;6.90;99.90
39371;DHT22;25099;51.946;4.838;2023-03-04T08:10:03;6.40;99.90
39371;DHT22;25099;51.946;4.838;2023-03-04T08:12:35;6.40;99.90
39371;DHT22;25099;51.946;4.838;2023-03-04T08:15:04;6.90;99.90
39371;DHT22;25099;51.946;4.838;2023-03-04T08:20:09;6.40;99.90
39371;DHT22;25099;51.946;4.838;2023-03-04T08:23:10;6.40;99.90
39371;DHT22;25099;51.946;4.838;2023-03-04T08:26:09;6.40;99.90
39371;DHT22;25099;51.946;4.838;2023-03-04T08:28:38;6.40;99.90
39371;DHT22;25099;51.946;4.838;2023-03-04T08:31:12;6.70;99.90
39371;DHT22;25099;51.946;4.838;2023-03-04T08:34:09;6.80;99.90
39371;DHT22;25099;51.946;4.838;2023-03-04T08:36:42;6.20;99.90
39371;DHT22;25099;51.946;4.838;2023-03-04T08:39:12;7.50;99.90
39371;DHT22;25099;51.946;4.838;2023-03-04T08:41:42;7.20;99.90
39371;DHT22;25099;51.946;4.838;2023-03-04T08:44:10;7.00;99.90
39371;DHT22;25099;51.946;4.838;2023-03-04T08:46:42;6.70;99.90
39371;DHT22;25099;51.946;4.838;2023-03-04T08:49:14;7.70;99.90
39371;DHT22;25099;51.946;4.838;2023-03-04T08:51:43;6.70;99.90
39371;DHT22;25099;51.946;4.838;2023-03-04T08:54:12;6.80;99.90
39371;DHT22;25099;51.946;4.838;2023-03-04T08:56:40;7.20;99.90
39371;DHT22;25099;51.946;4.838;2023-03-04T08:59:09;7.20;99.90
39371;DHT22;25099;51.946;4.838;2023-03-04T09:01:44;6.20;99.90
39371;DHT22;25099;51.946;4.838;2023-03-04T09:04:15;7.40;99.90
39371;DHT22;25099;51.946;4.838;2023-03-04T09:06:50;6.70;99.90
39371;DHT22;25099;51.946;4.838;2023-03-04T09:09:22;7.10;99.90
39371;DHT22;25099;51.946;4.838;2023-03-04T09:11:47;6.50;99.90
39371;DHT22;25099;51.946;4.838;2023-03-04T09:14:22;6.40;99.90
39371;DHT22;25099;51.946;4.838;2023-03-04T09:22:28;6.70;99.90
39371;DHT22;25099;51.946;4.838;2023-03-04T09:24:56;6.80;99.90
39371;DHT22;25099;51.946;4.838;2023-03-04T09:27:31;6.80;99.90
39371;DHT22;25099;51.946;4.838;2023-03-04T09:30:01;7.30;99.90
39371;DHT22;25099;51.946;4.838;2023-03-04T09:32:37;7.20;99.90
39371;DHT22;25099;51.946;4.838;2023-03-04T09:35:03;6.80;99.90
39371;DHT22;25099;51.946;4.838;2023-03-04T09:37:29;6.70;99.90
39371;DHT22;25099;51.946;4.838;2023-03-04T09:39:57;6.70;99.90
39371;DHT22;25099;51.946;4.838;2023-03-04T09:42:35;6.80;99.90
39371;DHT22;25099;51.946;4.838;2023-03-04T09:45:04;6.80;99.90
39371;DHT22;25099;51.946;4.838;2023-03-04T09:47:36;6.90;99.90
39371;DHT22;25099;51.946;4.838;2023-03-04T09:50:11;6.90;99.90
39371;DHT22;25099;51.946;4.838;2023-03-04T09:53:00;7.00;99.90
39371;DHT22;25099;51.946;4.838;2023-03-04T09:55:53;7.10;99.90
39371;DHT22;25099;51.946;4.838;2023-03-04T10:03:57;7.10;99.90
39371;DHT22;25099;51.946;4.838;2023-03-04T10:06:25;7.30;99.90
39371;DHT22;25099;51.946;4.838;2023-03-04T10:09:04;7.30;99.90
39371;DHT22;25099;51.946;4.838;2023-03-04T10:11:34;7.30;99.90
39371;DHT22;25099;51.946;4.838;2023-03-04T10:14:22;7.30;99.90
39371;DHT22;25099;51.946;4.838;2023-03-04T10:16:59;7.40;99.90
39371;DHT22;25099;51.946;4.838;2023-03-04T10:24:46;7.30;99.90
39371;DHT22;25099;51.946;4.838;2023-03-04T10:27:16;7.30;99.90
39371;DHT22;25099;51.946;4.838;2023-03-04T10:29:45;7.20;99.90
39371;DHT22;25099;51.946;4.838;2023-03-04T10:32:18;7.20;99.90
39371;DHT22;25099;51.946;4.838;2023-03-04T10:34:44;7.10;99.90
39371;DHT22;25099;51.946;4.838;2023-03-04T10:37:10;7.50;99.90
39371;DHT22;25099;51.946;4.838;2023-03-04T10:39:49;7.10;99.90
39371;DHT22;25099;51.946;4.838;2023-03-04T10:42:29;7.00;99.90
39371;DHT22;25099;51.946;4.838;2023-03-04T10:45:01;7.70;99.90
39371;DHT22;25099;51.946;4.838;2023-03-04T10:47:30;7.50;99.90
39371;DHT22;25099;51.946;4.838;2023-03-04T10:50:03;7.10;99.90
39371;DHT22;25099;51.946;4.838;2023-03-04T10:52:38;7.20;99.90
39371;DHT22;25099;51.946;4.838;2023-03-04T10:58:04;7.20;99.90
39371;DHT22;25099;51.946;4.838;2023-03-04T11:00:35;7.90;99.90
39371;DHT22;25099;51.946;4.838;2023-03-04T11:06:14;7.50;99.90
39371;DHT22;25099;51.946;4.838;2023-03-04T11:08:40;9.00;99.90
39371;DHT22;25099;51.946;4.838;2023-03-04T11:11:37;9.00;99.90
39371;DHT22;25099;51.946;4.838;2023-03-04T11:14:41;7.80;99.90
39371;DHT22;25099;51.946;4.838;2023-03-04T11:20:43;8.10;99.90
39371;DHT22;25099;51.946;4.838;2023-03-04T11:23:43;8.50;99.90
39371;DHT22;25099;51.946;4.838;2023-03-04T11:26:15;7.50;99.90
39371;DHT22;25099;51.946;4.838;2023-03-04T11:29:13;8.40;99.90
39371;DHT22;25099;51.946;4.838;2023-03-04T11:35:38;7.70;99.90
39371;DHT22;25099;51.946;4.838;2023-03-04T11:41:13;7.80;99.90
39371;DHT22;25099;51.946;4.838;2023-03-04T11:58:18;7.90;99.90
39371;DHT22;25099;51.946;4.838;2023-03-04T12:05:25;6.90;99.90
39371;DHT22;25099;51.946;4.838;2023-03-04T12:29:44;7.90;99.90
39371;DHT22;25099;51.946;4.838;2023-03-04T12:35:30;8.00;99.90
39371;DHT22;25099;51.946;4.838;2023-03-04T12:38:27;8.10;99.90
39371;DHT22;25099;51.946;4.838;2023-03-04T12:41:33;8.10;99.90
39371;DHT22;25099;51.946;4.838;2023-03-04T12:44:19;8.10;99.90
39371;DHT22;25099;51.946;4.838;2023-03-04T12:49:32;8.80;99.90
39371;DHT22;25099;51.946;4.838;2023-03-04T12:55:09;8.30;99.90
39371;DHT22;25099;51.946;4.838;2023-03-04T12:57:35;8.30;99.90
39371;DHT22;25099;51.946;4.838;2023-03-04T13:05:27;8.10;99.90
39371;DHT22;25099;51.946;4.838;2023-03-04T13:08:26;8.00;99.90
39371;DHT22;25099;51.946;4.838;2023-03-04T13:14:36;7.90;99.90
39371;DHT22;25099;51.946;4.838;2023-03-04T13:22:53;8.00;99.90
39371;DHT22;25099;51.946;4.838;2023-03-04T13:25:47;8.00;99.90
39371;DHT22;25099;51.946;4.838;2023-03-04T13:28:22;8.10;99.90
39371;DHT22;25099;51.946;4.838;2023-03-04T13:38:39;8.40;99.90
39371;DHT22;25099;51.946;4.838;2023-03-04T13:47:31;8.40;99.90
39371;DHT22;25099;51.946;4.838;2023-03-04T13:50:28;8.90;99.90
39371;DHT22;25099;51.946;4.838;2023-03-04T13:53:20;9.70;99.90
39371;DHT22;25099;51.946;4.838;2023-03-04T13:56:03;8.90;99.90
39371;DHT22;25099;51.946;4.838;2023-03-04T13:58:29;8.80;99.90
39371;DHT22;25099;51.946;4.838;2023-03-04T14:01:25;8.80;99.90
39371;DHT22;25099;51.946;4.838;2023-03-04T14:03:52;8.40;99.90
39371;DHT22;25099;51.946;4.838;2023-03-04T14:06:28;8.70;99.90
39371;DHT22;25099;51.946;4.838;2023-03-04T14:08:56;8.70;99.90
39371;DHT22;25099;51.946;4.838;2023-03-04T14:11:58;8.20;99.90
39371;DHT22;25099;51.946;4.838;2023-03-04T14:14:26;8.50;99.90
39371;DHT22;25099;51.946;4.838;2023-03-04T14:17:00;9.60;99.90
39371;DHT22;25099;51.946;4.838;2023-03-04T14:19:37;8.40;99.90
39371;DHT22;25099;51.946;4.838;2023-03-04T14:22:31;8.20;99.90
39371;DHT22;25099;51.946;4.838;2023-03-04T14:27:38;8.20;99.90
39371;DHT22;25099;51.946;4.838;2023-03-04T14:33:00;8.20;99.90
39371;DHT22;25099;51.946;4.838;2023-03-04T14:35:32;8.60;99.90
39371;DHT22;25099;51.946;4.838;2023-03-04T14:38:23;8.40;99.90
39371;DHT22;25099;51.946;4.838;2023-03-04T14:41:16;8.20;99.90
39371;DHT22;25099;51.946;4.838;2023-03-04T14:43:50;8.20;99.90
39371;DHT22;25099;51.946;4.838;2023-03-04T14:46:18;8.60;99.90
39371;DHT22;25099;51.946;4.838;2023-03-04T14:48:50;8.20;99.90
39371;DHT22;25099;51.946;4.838;2023-03-04T14:51:39;8.40;99.90
39371;DHT22;25099;51.946;4.838;2023-03-04T14:59:46;8.70;99.90
39371;DHT22;25099;51.946;4.838;2023-03-04T15:02:42;8.70;99.90
39371;DHT22;25099;51.946;4.838;2023-03-04T15:05:28;8.10;99.90
39371;DHT22;25099;51.946;4.838;2023-03-04T15:08:24;8.00;99.90
39371;DHT22;25099;51.946;4.838;2023-03-04T15:11:06;7.90;99.90
39371;DHT22;25099;51.946;4.838;2023-03-04T15:13:54;7.80;99.90
39371;DHT22;25099;51.946;4.838;2023-03-04T15:16:55;7.80;99.90
39371;DHT22;25099;51.946;4.838;2023-03-04T15:19:28;7.80;99.90
39371;DHT22;25099;51.946;4.838;2023-03-04T15:22:26;7.90;99.90
39371;DHT22;25099;51.946;4.838;2023-03-04T15:24:51;8.10;99.90
39371;DHT22;25099;51.946;4.838;2023-03-04T15:27:22;8.30;99.90
39371;DHT22;25099;51.946;4.838;2023-03-04T15:29:54;8.20;99.90
39371;DHT22;25099;51.946;4.838;2023-03-04T15:32:33;8.20;99.90
39371;DHT22;25099;51.946;4.838;2023-03-04T15:34:58;7.50;99.90
39371;DHT22;25099;51.946;4.838;2023-03-04T15:37:30;7.60;99.90
39371;DHT22;25099;51.946;4.838;2023-03-04T15:40:04;7.30;99.90
39371;DHT22;25099;51.946;4.838;2023-03-04T15:42:36;7.60;99.90
39371;DHT22;25099;51.946;4.838;2023-03-04T15:45:22;7.60;99.90
39371;DHT22;25099;51.946;4.838;2023-03-04T15:47:48;7.50;99.90
39371;DHT22;25099;51.946;4.838;2023-03-04T15:50:16;8.10;99.90
39371;DHT22;25099;51.946;4.838;2023-03-04T15:52:42;7.60;99.90
39371;DHT22;25099;51.946;4.838;2023-03-04T15:55:19;7.60;99.90
39371;DHT22;25099;51.946;4.838;2023-03-04T15:57:51;8.10;99.90
39371;DHT22;25099;51.946;4.838;2023-03-04T16:00:17;8.40;99.90
39371;DHT22;25099;51.946;4.838;2023-03-04T16:02:43;7.50;99.90
39371;DHT22;25099;51.946;4.838;2023-03-04T16:05:14;7.50;99.90
39371;DHT22;25099;51.946;4.838;2023-03-04T16:07:49;7.70;99.90
39371;DHT22;25099;51.946;4.838;2023-03-04T16:10:25;7.60;99.90
39371;DHT22;25099;51.946;4.838;2023-03-04T16:12:52;8.00;99.90
39371;DHT22;25099;51.946;4.838;2023-03-04T16:15:23;7.70;99.90
39371;DHT22;25099;51.946;4.838;2023-03-04T16:17:48;8.40;99.90
39371;DHT22;25099;51.946;4.838;2023-03-04T16:20:22;7.50;99.90
39371;DHT22;25099;51.946;4.838;2023-03-04T16:22:55;8.20;99.90
39371;DHT22;25099;51.946;4.838;2023-03-04T16:25:23;7.30;99.90
39371;DHT22;25099;51.946;4.838;2023-03-04T16:27:52;7.80;99.90
39371;DHT22;25099;51.946;4.838;2023-03-04T16:30:27;7.20;99.90
39371;DHT22;25099;51.946;4.838;2023-03-04T16:32:58;7.20;99.90
39371;DHT22;25099;51.946;4.838;2023-03-04T16:35:40;7.50;99.90
39371;DHT22;25099;51.946;4.838;2023-03-04T16:38:18;8.10;99.90
39371;DHT22;25099;51.946;4.838;2023-03-04T16:40:44;7.80;99.90
39371;DHT22;25099;51.946;4.838;2023-03-04T16:43:13;7.30;99.90
39371;DHT22;25099;51.946;4.838;2023-03-04T16:45:45;7.70;99.90
39371;DHT22;25099;51.946;4.838;2023-03-04T16:48:11;7.90;99.90
39371;DHT22;25099;51.946;4.838;2023-03-04T16:50:37;7.60;99.90
39371;DHT22;25099;51.946;4.838;2023-03-04T16:53:04;6.90;99.90
39371;DHT22;25099;51.946;4.838;2023-03-04T16:55:30;7.20;99.90
39371;DHT22;25099;51.946;4.838;2023-03-04T16:57:59;7.90;99.90
39371;DHT22;25099;51.946;4.838;2023-03-04T17:03:11;7.20;99.90
39371;DHT22;25099;51.946;4.838;2023-03-04T17:05:37;7.10;99.90
39371;DHT22;25099;51.946;4.838;2023-03-04T17:08:06;7.50;99.90
39371;DHT22;25099;51.946;4.838;2023-03-04T17:10:37;8.00;99.90
39371;DHT22;25099;51.946;4.838;2023-03-04T17:13:07;7.80;99.90
39371;DHT22;25099;51.946;4.838;2023-03-04T17:15:39;7.50;99.90
39371;DHT22;25099;51.946;4.838;2023-03-04T17:18:09;7.60;99.90
39371;DHT22;25099;51.946;4.838;2023-03-04T17:20:41;7.30;99.90
39371;DHT22;25099;51.946;4.838;2023-03-04T17:23:15;7.60;99.90
39371;DHT22;25099;51.946;4.838;2023-03-04T17:25:41;7.50;99.90
39371;DHT22;25099;51.946;4.838;2023-03-04T17:28:27;6.70;99.90
39371;DHT22;25099;51.946;4.838;2023-03-04T17:30:53;7.50;99.90
39371;DHT22;25099;51.946;4.838;2023-03-04T17:33:19;7.60;99.90
39371;DHT22;25099;51.946;4.838;2023-03-04T17:35:45;7.60;99.90
39371;DHT22;25099;51.946;4.838;2023-03-04T17:38:12;7.60;99.90
39371;DHT22;25099;51.946;4.838;2023-03-04T17:40:38;7.50;99.90
39371;DHT22;25099;51.946;4.838;2023-03-04T17:43:06;7.00;99.90
39371;DHT22;25099;51.946;4.838;2023-03-04T17:45:41;7.00;99.90
39371;DHT22;25099;51.946;4.838;2023-03-04T17:48:09;7.20;99.90
39371;DHT22;25099;51.946;4.838;2023-03-04T17:50:50;7.00;99.90
39371;DHT22;25099;51.946;4.838;2023-03-04T17:53:38;8.40;99.90
39371;DHT22;25099;51.946;4.838;2023-03-04T17:56:07;6.60;99.90
39371;DHT22;25099;51.946;4.838;2023-03-04T17:58:39;7.00;99.90
39371;DHT22;25099;51.946;4.838;2023-03-04T18:01:16;7.20;99.90
39371;DHT22;25099;51.946;4.838;2023-03-04T18:03:42;7.60;99.90
39371;DHT22;25099;51.946;4.838;2023-03-04T18:06:10;8.20;99.90
39371;DHT22;25099;51.946;4.838;2023-03-04T18:08:44;7.50;99.90
39371;DHT22;25099;51.946;4.838;2023-03-04T18:11:13;7.60;99.90
39371;DHT22;25099;51.946;4.838;2023-03-04T18:13:42;6.30;99.90
39371;DHT22;25099;51.946;4.838;2023-03-04T18:16:16;6.50;99.90
39371;DHT22;25099;51.946;4.838;2023-03-04T18:18:51;7.30;99.90
39371;DHT22;25099;51.946;4.838;2023-03-04T18:21:17;6.90;99.90
39371;DHT22;25099;51.946;4.838;2023-03-04T18:23:43;7.50;99.90
39371;DHT22;25099;51.946;4.838;2023-03-04T18:26:15;7.60;99.90
39371;DHT22;25099;51.946;4.838;2023-03-04T18:28:49;7.10;99.90
39371;DHT22;25099;51.946;4.838;2023-03-04T18:31:22;7.10;99.90
39371;DHT22;25099;51.946;4.838;2023-03-04T18:33:48;6.80;99.90
39371;DHT22;25099;51.946;4.838;2023-03-04T18:36:17;7.50;99.90
39371;DHT22;25099;51.946;4.838;2023-03-04T18:38:49;7.10;99.90
39371;DHT22;25099;51.946;4.838;2023-03-04T18:41:15;6.80;99.90
39371;DHT22;25099;51.946;4.838;2023-03-04T18:43:49;7.10;99.90
39371;DHT22;25099;51.946;4.838;2023-03-04T18:46:52;7.10;99.90
39371;DHT22;25099;51.946;4.838;2023-03-04T18:49:24;6.70;99.90
39371;DHT22;25099;51.946;4.838;2023-03-04T18:51:52;6.70;99.90
39371;DHT22;25099;51.946;4.838;2023-03-04T18:54:25;7.50;99.90
39371;DHT22;25099;51.946;4.838;2023-03-04T18:56:57;7.30;99.90
39371;DHT22;25099;51.946;4.838;2023-03-04T18:59:38;6.90;99.90
39371;DHT22;25099;51.946;4.838;2023-03-04T19:05:02;6.20;99.90
39371;DHT22;25099;51.946;4.838;2023-03-04T19:07:29;7.20;99.90
39371;DHT22;25099;51.946;4.838;2023-03-04T19:09:55;6.50;99.90
39371;DHT22;25099;51.946;4.838;2023-03-04T19:12:22;7.90;99.90
39371;DHT22;25099;51.946;4.838;2023-03-04T19:14:48;6.60;99.90
39371;DHT22;25099;51.946;4.838;2023-03-04T19:17:16;7.30;99.90
39371;DHT22;25099;51.946;4.838;2023-03-04T19:19:51;7.50;99.90
39371;DHT22;25099;51.946;4.838;2023-03-04T19:22:18;7.20;99.90
39371;DHT22;25099;51.946;4.838;2023-03-04T19:27:50;6.70;99.90
39371;DHT22;25099;51.946;4.838;2023-03-04T19:40:48;6.70;99.90
39371;DHT22;25099;51.946;4.838;2023-03-04T19:43:13;7.20;99.90
39371;DHT22;25099;51.946;4.838;2023-03-04T19:45:51;7.20;99.90
39371;DHT22;25099;51.946;4.838;2023-03-04T19:48:17;6.90;99.90
39371;DHT22;25099;51.946;4.838;2023-03-04T22:48:18;5.80;99.90
39371;DHT22;25099;51.946;4.838;2023-03-04T22:50:44;6.30;99.90
39371;DHT22;25099;51.946;4.838;2023-03-04T22:56:18;6.00;99.90
